Time;durP1;ratioP1;P1;durP2;ratioP2;P2;SDS_P1;SDS_P2;PMS_P1;PMS_P2;Temp;Humidity;BMP_temperature;BMP_pressure;BME280_temperature;BME280_humidity;BME280_pressure;Samples;Min_cycle;Max_cycle;Signal;HPM_P1;HPM_P2
2022/09/11 00:01:40;;;;;;;25.98;19.63;;;;;;;14.74;100.00;101586.19;5051226;28;20127;-49
2022/09/11 00:04:09;;;;;;;24.48;18.75;;;;;;;14.74;100.00;101580.91;5051508;28;20103;-48
2022/09/11 00:06:37;;;;;;;26.00;19.13;;;;;;;14.70;100.00;101589.06;5050758;28;20687;-47
2022/09/11 00:09:07;;;;;;;25.60;19.38;;;;;;;14.67;100.00;101589.28;5051741;28;20040;-49
2022/09/11 00:11:39;;;;;;;28.02;19.40;;;;;;;14.67;100.00;101589.28;5051268;28;20045;-47
2022/09/11 00:14:09;;;;;;;26.15;20.52;;;;;;;14.61;100.00;101589.69;5051712;28;20049;-47
2022/09/11 00:16:41;;;;;;;27.23;20.25;;;;;;;14.64;100.00;101592.16;5050874;28;20083;-51
2022/09/11 00:19:12;;;;;;;29.00;20.30;;;;;;;14.65;100.00;101601.78;5049974;28;20094;-49
2022/09/11 00:21:40;;;;;;;28.98;19.15;;;;;;;14.65;100.00;101595.63;5050474;28;20124;-51
2022/09/11 00:24:12;;;;;;;25.27;18.88;;;;;;;14.65;100.00;101604.41;5051179;28;20471;-51
2022/09/11 00:26:41;;;;;;;26.88;19.67;;;;;;;14.57;100.00;101601.44;5051204;28;20561;-52
2022/09/11 00:29:09;;;;;;;25.52;19.83;;;;;;;14.55;100.00;101606.00;5051481;28;20036;-50
2022/09/11 00:31:37;;;;;;;26.00;19.40;;;;;;;14.45;100.00;101613.75;5049500;28;20151;-49
2022/09/11 00:34:07;;;;;;;25.83;19.67;;;;;;;14.44;100.00;101616.47;5050885;28;20041;-52
2022/09/11 00:36:36;;;;;;;27.35;19.30;;;;;;;14.44;100.00;101611.19;5050179;28;20703;-49
2022/09/11 00:39:04;;;;;;;25.95;18.65;;;;;;;14.46;100.00;101607.47;5051342;28;20045;-48
2022/09/11 00:41:35;;;;;;;25.35;18.13;;;;;;;14.46;100.00;101602.19;5050730;28;20148;-50
2022/09/11 00:44:06;;;;;;;25.42;17.85;;;;;;;14.51;100.00;101600.06;5051540;28;20738;-51
2022/09/11 00:46:40;;;;;;;23.55;18.25;;;;;;;14.42;100.00;101595.41;5050565;28;20379;-50
2022/09/11 00:49:26;;;;;;;24.65;18.67;;;;;;;14.44;100.00;101605.88;5050770;28;20426;-51
2022/09/11 00:52:00;;;;;;;26.02;18.60;;;;;;;14.45;100.00;101611.09;5049222;28;20060;-51
2022/09/11 00:54:32;;;;;;;26.13;19.73;;;;;;;14.42;100.00;101610.44;5049160;28;20045;-48
2022/09/11 00:57:04;;;;;;;25.80;19.40;;;;;;;14.35;100.00;101610.84;5050764;28;20076;-51
2022/09/11 00:59:34;;;;;;;26.70;19.35;;;;;;;14.41;100.00;101608.75;5050487;28;20109;-49
2022/09/11 01:02:06;;;;;;;26.27;19.42;;;;;;;14.37;100.00;101605.50;5051029;28;20068;-49
2022/09/11 01:04:36;;;;;;;26.88;19.85;;;;;;;14.33;100.00;101607.50;5050304;28;20106;-46
2022/09/11 01:07:04;;;;;;;26.45;18.65;;;;;;;14.34;100.00;101603.91;5049934;28;20060;-50
2022/09/11 01:09:33;;;;;;;25.95;18.73;;;;;;;14.36;100.00;101604.63;5050185;28;20048;-48
2022/09/11 01:12:08;;;;;;;26.98;17.98;;;;;;;14.36;100.00;101599.34;5050239;28;20211;-50
2022/09/11 01:14:44;;;;;;;24.70;19.45;;;;;;;14.28;100.00;101604.31;5049641;28;20124;-51
2022/09/11 01:17:24;;;;;;;23.45;19.45;;;;;;;14.25;100.00;101599.25;5049907;28;20128;-53
2022/09/11 01:20:17;;;;;;;25.30;18.88;;;;;;;14.25;100.00;101601.00;5049030;28;20051;-49
2022/09/11 01:23:02;;;;;;;25.65;19.10;;;;;;;14.30;100.00;101598.91;5037662;28;20049;-50
2022/09/11 01:25:44;;;;;;;24.70;18.55;;;;;;;14.19;100.00;101597.88;5050283;28;20155;-53
2022/09/11 01:28:15;;;;;;;23.52;18.25;;;;;;;14.17;100.00;101607.69;5049815;28;20103;-47
2022/09/11 01:30:47;;;;;;;25.40;17.42;;;;;;;14.15;100.00;101614.91;5050029;28;20349;-50
2022/09/11 01:33:22;;;;;;;24.80;18.13;;;;;;;14.12;100.00;101624.81;5049442;28;20102;-47
2022/09/11 01:36:02;;;;;;;26.48;18.85;;;;;;;14.08;100.00;101618.88;5048801;28;20081;-49
2022/09/11 01:38:36;;;;;;;25.15;17.92;;;;;;;14.10;100.00;101621.47;5048874;28;20076;-51
2022/09/11 01:41:10;;;;;;;25.73;18.17;;;;;;;14.08;100.00;101618.88;5050272;28;20053;-50
2022/09/11 01:43:44;;;;;;;26.92;19.45;;;;;;;14.09;100.00;101625.03;5048995;28;20076;-48
2022/09/11 01:46:16;;;;;;;26.65;18.80;;;;;;;14.04;100.00;101614.75;5049385;28;20083;-49
2022/09/11 01:48:47;;;;;;;26.23;19.15;;;;;;;14.03;100.00;101615.72;5050302;28;20120;-50
2022/09/11 01:51:22;;;;;;;27.90;19.83;;;;;;;13.98;100.00;101616.03;5048496;28;20044;-48
2022/09/11 01:53:53;;;;;;;24.45;17.85;;;;;;;14.06;100.00;101620.81;5050149;28;20083;-51
2022/09/11 01:56:24;;;;;;;26.92;19.55;;;;;;;14.00;100.00;101622.06;5049431;28;20131;-46
2022/09/11 01:58:57;;;;;;;28.58;18.52;;;;;;;14.01;100.00;101621.09;5050181;28;20051;-51
2022/09/11 02:01:29;;;;;;;20.80;17.02;;;;;;;14.02;100.00;101621.97;5049218;28;20499;-48
2022/09/11 02:04:04;;;;;;;29.37;19.23;;;;;;;13.94;100.00;101625.13;5049831;28;20049;-45
2022/09/11 02:06:37;;;;;;;24.95;18.40;;;;;;;13.89;100.00;101621.91;5048444;28;20091;-49
2022/09/11 02:09:08;;;;;;;22.42;17.08;;;;;;;13.85;100.00;101625.72;5050063;28;20045;-49
2022/09/11 02:11:40;;;;;;;24.92;17.60;;;;;;;13.85;100.00;101631.88;5049625;28;20080;-51
2022/09/11 02:14:16;;;;;;;33.28;18.45;;;;;;;13.91;100.00;101630.63;5049548;28;20515;-49
2022/09/11 02:16:49;;;;;;;24.05;18.25;;;;;;;13.84;100.00;101626.69;5049270;28;20049;-52
2022/09/11 02:19:19;;;;;;;23.25;17.02;;;;;;;13.83;100.00;101630.28;5049637;28;20083;-52
2022/09/11 02:21:48;;;;;;;27.35;19.20;;;;;;;13.74;100.00;101631.72;5048557;28;20507;-46
2022/09/11 02:24:16;;;;;;;26.67;18.92;;;;;;;13.69;100.00;101639.97;5049636;28;20049;-48
2022/09/11 02:26:48;;;;;;;26.10;18.27;;;;;;;13.73;100.00;101634.47;5049486;28;20579;-48
2022/09/11 02:29:17;;;;;;;25.25;17.75;;;;;;;13.64;100.00;101644.69;5049154;28;20064;-47
2022/09/11 02:31:49;;;;;;;27.02;18.67;;;;;;;13.60;100.00;101637.91;5048956;28;20406;-47
2022/09/11 02:34:21;;;;;;;27.23;18.47;;;;;;;13.61;100.00;101646.72;5048775;28;20053;-47
2022/09/11 02:37:08;;;;;;;25.35;17.20;;;;;;;13.65;100.00;101638.47;5047920;28;20499;-46
2022/09/11 02:39:54;;;;;;;27.20;18.05;;;;;;;13.63;100.00;101640.38;5049629;28;20049;-47
2022/09/11 02:42:37;;;;;;;23.33;17.13;;;;;;;13.65;100.00;101638.47;5049440;28;20124;-51
2022/09/11 02:45:16;;;;;;;24.75;18.60;;;;;;;13.59;100.00;101638.03;5051054;28;20526;-51
2022/09/11 02:47:55;;;;;;;25.50;18.38;;;;;;;13.51;100.00;101642.03;5052714;28;20450;-51
2022/09/11 02:50:33;;;;;;;26.33;17.40;;;;;;;13.50;100.00;101642.13;5051325;28;20491;-48
2022/09/11 02:53:06;;;;;;;26.65;17.60;;;;;;;13.48;100.00;101636.94;5051334;28;20053;-49
2022/09/11 02:55:47;;;;;;;22.77;16.90;;;;;;;13.43;100.00;101646.09;5052499;28;20547;-45
2022/09/11 02:58:20;;;;;;;26.13;18.05;;;;;;;13.43;100.00;101648.72;5052514;28;20076;-47
2022/09/11 03:00:49;;;;;;;24.45;17.13;;;;;;;13.43;100.00;101646.09;5050841;28;20137;-46
2022/09/11 03:03:19;;;;;;;27.77;17.30;;;;;;;13.34;100.00;101653.63;5052481;28;20060;-50
2022/09/11 03:05:50;;;;;;;23.83;17.20;;;;;;;13.29;100.00;101658.38;5051331;28;20041;-49
2022/09/11 03:08:18;;;;;;;26.88;18.27;;;;;;;13.31;100.00;101661.75;5052809;28;20052;-47
2022/09/11 03:10:48;;;;;;;29.40;19.20;;;;;;;13.27;100.00;101656.78;5052500;28;20455;-48
2022/09/11 03:13:16;;;;;;;28.00;18.65;;;;;;;13.25;100.00;101663.94;5052607;28;20055;-47
2022/09/11 03:15:44;;;;;;;26.23;18.35;;;;;;;13.21;100.00;101665.94;5052185;28;20045;-46
2022/09/11 03:18:14;;;;;;;25.15;18.17;;;;;;;13.21;100.00;101670.38;5052431;28;20049;-47
2022/09/11 03:20:46;;;;;;;28.08;18.90;;;;;;;13.23;100.00;101669.31;5051695;28;20045;-47
2022/09/11 03:23:14;;;;;;;27.75;19.98;;;;;;;13.12;100.00;101671.81;5052627;28;20446;-51
2022/09/11 03:25:42;;;;;;;32.25;20.52;;;;;;;13.16;100.00;101675.94;5051889;28;20079;-47
2022/09/11 03:28:10;;;;;;;32.45;20.25;;;;;;;13.07;100.00;101673.88;5052091;28;20052;-46
2022/09/11 03:30:40;;;;;;;28.60;19.27;;;;;;;13.04;100.00;101679.34;5051762;28;20037;-46
2022/09/11 03:33:08;;;;;;;28.95;20.40;;;;;;;12.96;100.00;101672.75;5052181;28;20102;-46
2022/09/11 03:35:37;;;;;;;30.42;20.08;;;;;;;12.93;100.00;101686.13;5050876;28;20459;-45
2022/09/11 03:38:05;;;;;;;31.75;21.13;;;;;;;12.91;100.00;101674.84;5051139;28;20084;-46
2022/09/11 03:40:33;;;;;;;26.90;19.15;;;;;;;12.93;100.00;101680.84;5052298;28;20049;-48
2022/09/11 03:43:01;;;;;;;28.98;19.20;;;;;;;12.93;100.00;101680.84;5051963;28;20059;-47
2022/09/11 03:45:29;;;;;;;26.35;18.17;;;;;;;12.98;100.00;101683.22;5051432;28;20053;-46
2022/09/11 03:47:58;;;;;;;24.98;18.08;;;;;;;12.99;100.00;101684.91;5051891;28;20044;-50
2022/09/11 03:50:26;;;;;;;27.98;18.88;;;;;;;12.96;100.00;101685.94;5050811;28;20045;-46
2022/09/11 03:52:55;;;;;;;28.98;19.20;;;;;;;12.91;100.00;101681.91;5052035;28;20045;-46
2022/09/11 03:55:23;;;;;;;27.70;18.70;;;;;;;12.94;100.00;101690.47;5051178;28;20091;-47
2022/09/11 03:57:51;;;;;;;30.02;20.92;;;;;;;12.94;100.00;101679.94;5051942;28;20037;-50
2022/09/11 04:00:19;;;;;;;31.02;19.55;;;;;;;12.98;100.00;101683.22;5050791;28;20076;-48
2022/09/11 04:02:48;;;;;;;29.98;19.85;;;;;;;12.92;100.00;101687.06;5051633;28;20462;-47
2022/09/11 04:05:16;;;;;;;32.53;21.17;;;;;;;12.88;100.00;101682.94;5050025;28;20049;-50
2022/09/11 04:07:44;;;;;;;31.35;20.88;;;;;;;12.88;100.00;101693.50;5051377;28;20060;-47
2022/09/11 04:10:14;;;;;;;32.63;21.13;;;;;;;12.84;100.00;101692.84;5049871;28;20060;-49
2022/09/11 04:12:43;;;;;;;31.75;20.88;;;;;;;12.83;100.00;101692.94;5051885;28;20483;-50
2022/09/11 04:15:14;;;;;;;33.55;21.75;;;;;;;12.94;100.00;101690.47;5050551;28;20051;-49
2022/09/11 04:17:42;;;;;;;31.58;21.38;;;;;;;12.85;100.00;101691.03;5051831;28;20549;-50
2022/09/11 04:20:10;;;;;;;31.45;21.75;;;;;;;12.81;100.00;101690.38;5050055;28;20045;-49
2022/09/11 04:22:39;;;;;;;29.05;20.33;;;;;;;12.79;100.00;101687.00;5051232;28;20041;-49
2022/09/11 04:25:09;;;;;;;32.70;21.38;;;;;;;12.76;100.00;101691.59;5051234;28;20130;-47
2022/09/11 04:27:39;;;;;;;32.28;20.30;;;;;;;12.78;100.00;101695.00;5051982;28;20103;-48
2022/09/11 04:30:08;;;;;;;31.48;21.55;;;;;;;12.79;100.00;101699.34;5050591;28;20053;-49
2022/09/11 04:32:36;;;;;;;29.23;18.75;;;;;;;12.78;100.00;101702.94;5051333;28;20124;-51
2022/09/11 04:35:05;;;;;;;29.83;19.38;;;;;;;12.84;100.00;101700.75;5050165;28;20068;-50
2022/09/11 04:37:34;;;;;;;30.23;20.45;;;;;;;12.75;100.00;101698.69;5051164;28;20041;-52
2022/09/11 04:40:02;;;;;;;32.42;20.92;;;;;;;12.68;100.00;101689.44;5051438;28;20131;-47
2022/09/11 04:42:30;;;;;;;27.45;19.70;;;;;;;12.69;100.00;101688.47;5051007;28;20458;-46
2022/09/11 04:45:00;;;;;;;26.83;18.63;;;;;;;12.68;100.00;101684.16;5050411;28;20053;-48
2022/09/11 04:47:28;;;;;;;26.88;18.00;;;;;;;12.72;100.00;101687.44;5050606;28;20053;-51
2022/09/11 04:49:57;;;;;;;28.55;19.40;;;;;;;12.70;100.00;101690.19;5049883;28;20048;-49
2022/09/11 04:52:26;;;;;;;26.52;18.55;;;;;;;12.61;100.00;101696.88;5049236;28;20053;-46
2022/09/11 04:54:54;;;;;;;28.08;19.25;;;;;;;12.64;100.00;101699.34;5049233;28;20084;-47
2022/09/11 04:57:22;;;;;;;27.38;17.73;;;;;;;12.69;100.00;101699.03;5050618;28;20053;-46
2022/09/11 04:59:51;;;;;;;26.60;19.05;;;;;;;12.70;100.00;101705.19;5048911;28;20690;-46
2022/09/11 05:02:21;;;;;;;32.03;19.58;;;;;;;12.72;100.00;101717.34;5050513;28;20492;-47
2022/09/11 05:04:49;;;;;;;25.80;17.88;;;;;;;12.68;100.00;101715.84;5049415;28;20052;-50
2022/09/11 05:07:17;;;;;;;27.55;17.73;;;;;;;12.61;100.00;101718.00;5049827;28;20049;-48
2022/09/11 05:09:46;;;;;;;25.90;16.80;;;;;;;12.46;100.00;101718.88;5050580;28;20430;-47
2022/09/11 05:12:14;;;;;;;26.52;17.92;;;;;;;12.40;100.00;101727.19;5050080;28;20044;-48
2022/09/11 05:14:42;;;;;;;25.45;18.05;;;;;;;12.46;100.00;101721.53;5050127;28;20076;-51
2022/09/11 05:17:12;;;;;;;27.48;18.77;;;;;;;12.46;100.00;101734.72;5049230;28;20143;-51
2022/09/11 05:19:42;;;;;;;27.45;18.50;;;;;;;12.43;100.00;101738.38;5049667;28;20049;-49
2022/09/11 05:22:10;;;;;;;29.33;18.25;;;;;;;12.46;100.00;101740.00;5050079;28;20128;-47
2022/09/11 05:24:38;;;;;;;28.00;18.58;;;;;;;12.47;100.00;101745.19;5050189;28;20052;-49
2022/09/11 05:27:07;;;;;;;29.60;18.58;;;;;;;12.48;100.00;101746.03;5049596;28;20132;-48
2022/09/11 05:29:35;;;;;;;34.33;20.05;;;;;;;12.51;100.00;101744.06;5049505;28;20081;-47
2022/09/11 05:32:05;;;;;;;35.00;20.73;;;;;;;12.52;100.00;101747.56;5050310;28;20045;-48
2022/09/11 05:34:36;;;;;;;34.08;20.33;;;;;;;12.59;100.00;101742.78;5048221;28;20045;-46
2022/09/11 05:37:05;;;;;;;31.83;18.52;;;;;;;12.58;100.00;101747.19;5049158;28;20084;-49
2022/09/11 05:39:33;;;;;;;27.92;18.45;;;;;;;12.59;100.00;101742.78;5050328;28;20053;-46
2022/09/11 05:42:02;;;;;;;31.48;18.45;;;;;;;12.61;100.00;101749.66;5048313;28;20064;-47
2022/09/11 05:44:33;;;;;;;29.92;18.02;;;;;;;12.66;100.00;101755.50;5049569;28;20131;-47
2022/09/11 05:47:01;;;;;;;35.90;17.17;;;;;;;12.64;100.00;101753.91;5049728;28;20124;-48
2022/09/11 05:49:29;;;;;;;21.50;15.55;;;;;;;12.59;100.00;101753.31;5049473;28;20049;-48
2022/09/11 05:51:58;;;;;;;24.02;16.92;;;;;;;12.55;100.00;101757.94;5048142;28;20072;-48
2022/09/11 05:54:27;;;;;;;23.52;15.20;;;;;;;12.52;100.00;101758.13;5049675;28;20495;-48
2022/09/11 05:56:55;;;;;;;20.73;15.73;;;;;;;12.61;100.00;101762.84;5049307;28;20535;-48
2022/09/11 05:59:27;;;;;;;19.13;14.18;;;;;;;12.58;100.00;101763.00;5049286;28;20041;-49
2022/09/11 06:01:55;;;;;;;20.17;14.23;;;;;;;12.61;100.00;101765.50;5049353;28;20098;-50
2022/09/11 06:04:23;;;;;;;19.33;14.73;;;;;;;12.71;100.00;101767.56;5049227;28;20048;-46
2022/09/11 06:06:51;;;;;;;19.02;13.43;;;;;;;12.80;100.00;101777.56;5048122;28;20515;-49
2022/09/11 06:09:19;;;;;;;19.40;13.93;;;;;;;12.80;100.00;101774.94;5048478;28;20131;-48
2022/09/11 06:11:52;;;;;;;16.83;12.52;;;;;;;12.76;100.00;101784.84;5049885;28;20081;-49
2022/09/11 06:14:20;;;;;;;19.88;13.98;;;;;;;12.71;100.00;101793.97;5049950;28;20495;-49
2022/09/11 06:16:48;;;;;;;19.20;14.20;;;;;;;12.74;100.00;101789.34;5049492;28;20045;-53
2022/09/11 06:19:16;;;;;;;19.25;13.68;;;;;;;12.80;100.00;101788.13;5051861;28;20124;-49
2022/09/11 06:21:44;;;;;;;21.58;14.65;;;;;;;12.89;100.00;101795.50;5052167;28;20491;-50
2022/09/11 06:24:12;;;;;;;19.40;15.07;;;;;;;13.01;100.00;101797.41;5053146;28;20049;-50
2022/09/11 06:26:45;;;;;;;17.35;13.55;;;;;;;13.13;100.00;101800.25;5052881;28;20051;-50
2022/09/11 06:29:15;;;;;;;23.20;15.80;;;;;;;13.18;100.00;101790.25;5053360;28;20085;-50
2022/09/11 06:31:43;;;;;;;20.70;14.60;;;;;;;13.27;100.00;101792.34;5053260;28;20048;-48
2022/09/11 06:34:12;;;;;;;27.38;17.33;;;;;;;13.35;100.00;101794.50;5053046;28;20083;-49
2022/09/11 06:36:40;;;;;;;25.23;17.48;;;;;;;13.48;100.00;101789.34;5051915;28;20747;-49
2022/09/11 06:39:08;;;;;;;24.95;17.55;;;;;;;13.57;100.00;101794.06;5051390;28;20063;-51
2022/09/11 06:41:36;;;;;;;26.45;18.80;;;;;;;13.54;100.00;101794.25;5053059;28;20539;-49
2022/09/11 06:44:04;;;;;;;25.98;18.25;;;;;;;13.64;100.00;101794.53;5053654;28;20646;-52
2022/09/11 06:46:34;;;;;;;27.70;18.77;;;;;;;13.73;100.00;101787.78;5052799;28;20073;-53
2022/09/11 06:49:02;;;;;;;28.25;18.85;;;;;;;13.78;100.00;101788.34;5053445;28;20103;-49
2022/09/11 06:51:30;;;;;;;30.67;20.40;;;;;;;13.80;100.00;101787.31;5050209;28;20518;-49
2022/09/11 06:54:01;;;;;;;30.52;20.77;;;;;;;13.88;100.00;101791.25;5052676;28;20069;-49
2022/09/11 06:56:30;;;;;;;31.27;20.67;;;;;;;13.98;100.00;101793.22;5051779;28;20053;-48
2022/09/11 06:58:59;;;;;;;33.42;21.13;;;;;;;14.09;100.00;101795.16;5053151;28;20049;-48
2022/09/11 07:01:27;;;;;;;34.05;22.05;;;;;;;14.17;100.00;101799.97;5051770;28;20053;-49
2022/09/11 07:03:57;;;;;;;31.48;21.50;;;;;;;14.24;100.00;101803.88;5053082;28;20045;-49
2022/09/11 07:06:29;;;;;;;33.60;22.60;;;;;;;14.32;100.00;101806.88;5051316;28;20044;-48
2022/09/11 07:09:00;;;;;;;32.70;21.58;;;;;;;14.42;100.00;101811.56;5053087;28;20068;-48
2022/09/11 07:11:31;;;;;;;36.10;23.45;;;;;;;14.53;100.00;101807.28;5051080;28;20135;-50
2022/09/11 07:13:59;;;;;;;34.47;22.95;;;;;;;14.70;100.00;101811.44;5052961;28;20069;-49
2022/09/11 07:16:30;;;;;;;34.53;22.67;;;;;;;14.82;100.00;101808.91;5052037;28;20388;-51
2022/09/11 07:18:59;;;;;;;37.65;25.40;;;;;;;14.89;100.00;101804.91;5052690;28;20049;-50
2022/09/11 07:21:28;;;;;;;35.40;23.88;;;;;;;15.01;100.00;101809.38;5051035;28;20084;-52
2022/09/11 07:23:57;;;;;;;34.85;24.05;;;;;;;15.20;100.00;101802.78;5052137;28;20136;-48
2022/09/11 07:26:27;;;;;;;33.78;24.23;;;;;;;15.38;100.00;101805.97;5051272;28;20055;-50
2022/09/11 07:28:58;;;;;;;34.45;24.45;;;;;;;15.47;100.00;101801.81;5052265;28;20057;-50
2022/09/11 07:31:29;;;;;;;34.70;23.33;;;;;;;15.61;100.00;101801.69;5051097;28;20557;-49
2022/09/11 07:33:59;;;;;;;34.55;24.08;;;;;;;15.72;100.00;101812.38;5051960;28;20045;-48
2022/09/11 07:36:29;;;;;;;35.88;25.60;;;;;;;15.86;100.00;101813.22;5050748;28;20131;-51
2022/09/11 07:38:58;;;;;;;34.63;26.45;;;;;;;16.03;100.00;101811.97;5052725;28;20098;-50
2022/09/11 07:41:28;;;;;;;40.30;27.42;;;;;;;16.21;100.00;101813.28;5050336;28;20088;-51
2022/09/11 07:44:00;;;;;;;34.23;26.80;;;;;;;16.32;100.00;101817.81;5052249;28;20045;-48
2022/09/11 07:46:29;;;;;;;36.90;27.38;;;;;;;16.61;100.00;101811.28;5051399;28;20049;-50
2022/09/11 07:49:00;;;;;;;32.85;25.70;;;;;;;16.72;100.00;101812.13;5052040;28;20053;-48
2022/09/11 07:51:29;;;;;;;31.27;24.48;;;;;;;16.89;100.00;101815.34;5050571;28;20045;-51
2022/09/11 07:53:58;;;;;;;32.80;24.90;;;;;;;16.98;100.00;101830.59;5052176;28;20499;-52
2022/09/11 07:56:28;;;;;;;29.98;24.10;;;;;;;17.14;100.00;101829.38;5051472;28;20041;-51
2022/09/11 07:58:56;;;;;;;29.38;23.92;;;;;;;17.29;100.00;101833.53;5052069;28;20040;-51
2022/09/11 08:01:25;;;;;;;31.02;23.55;;;;;;;17.44;100.00;101835.94;5051476;28;20554;-52
2022/09/11 08:03:55;;;;;;;29.50;24.85;;;;;;;17.60;100.00;101830.25;5051974;28;20114;-52
2022/09/11 08:06:27;;;;;;;30.58;24.42;;;;;;;17.71;100.00;101830.25;5050330;28;20047;-53
2022/09/11 08:08:57;;;;;;;30.45;24.02;;;;;;;17.88;100.00;101831.56;5049502;28;20152;-53
2022/09/11 08:11:27;;;;;;;27.58;23.58;;;;;;;18.23;100.00;101827.88;5051519;28;20052;-54
2022/09/11 08:13:56;;;;;;;28.65;23.23;;;;;;;18.26;100.00;101830.28;5052091;28;20128;-54
2022/09/11 08:16:27;;;;;;;28.85;23.65;;;;;;;18.28;100.00;101835.47;5050985;28;20102;-52
2022/09/11 08:18:55;;;;;;;28.63;23.38;;;;;;;18.27;100.00;101831.97;5052054;28;20127;-53
2022/09/11 08:21:28;;;;;;;29.92;24.60;;;;;;;18.44;100.00;101830.56;5050336;28;20041;-52
2022/09/11 08:23:56;;;;;;;28.80;23.95;;;;;;;18.38;100.00;101831.09;5051393;28;20102;-53
2022/09/11 08:26:26;;;;;;;30.38;25.35;;;;;;;18.38;100.00;101829.25;5051458;28;20075;-53
2022/09/11 08:28:55;;;;;;;26.58;21.60;;;;;;;18.27;100.00;101837.31;5051645;28;20471;-52
2022/09/11 08:31:25;;;;;;;26.70;22.50;;;;;;;18.29;100.00;101839.84;5050814;28;20053;-53
2022/09/11 08:33:54;;;;;;;28.25;22.45;;;;;;;18.34;100.00;101841.16;5051392;28;20052;-53
2022/09/11 08:36:22;;;;;;;26.55;22.85;;;;;;;18.29;100.00;101845.16;5050011;28;20049;-51
2022/09/11 08:38:52;;;;;;;26.08;21.92;;;;;;;18.28;100.00;101843.47;5051047;28;20114;-54
2022/09/11 08:41:34;;;;;;;24.75;21.40;;;;;;;18.28;100.00;101846.13;5050671;28;20041;-52
2022/09/11 08:44:07;;;;;;;27.17;22.67;;;;;;;18.24;100.00;101857.03;5051158;28;20128;-53
2022/09/11 08:46:42;;;;;;;29.33;24.15;;;;;;;18.51;100.00;101854.88;5050758;28;20095;-52
2022/09/11 08:49:18;;;;;;;31.20;26.60;;;;;;;18.82;100.00;101854.97;5050936;28;20216;-53
2022/09/11 08:51:50;;;;;;;31.30;25.50;;;;;;;19.04;100.00;101854.03;5049145;28;20449;-54
2022/09/11 08:54:27;;;;;;;32.45;25.77;;;;;;;19.11;100.00;101857.84;5050380;28;20052;-52
2022/09/11 08:57:07;;;;;;;30.42;24.33;;;;;;;19.03;100.00;101855.88;5051358;28;20120;-54
2022/09/11 08:59:53;;;;;;;27.63;23.85;;;;;;;18.89;100.00;101867.66;5050797;28;20364;-53
2022/09/11 09:02:46;;;;;;;26.85;23.73;;;;;;;18.69;100.00;101861.34;5050557;28;20048;-54
2022/09/11 09:05:27;;;;;;;28.85;23.95;;;;;;;18.70;100.00;101865.69;5049382;28;20107;-51
2022/09/11 09:08:07;;;;;;;30.63;25.00;;;;;;;19.05;100.00;101861.06;5050539;28;20098;-54
2022/09/11 09:10:50;;;;;;;29.40;24.58;;;;;;;19.33;100.00;101864.84;5050445;28;20060;-53
2022/09/11 09:13:36;;;;;;;31.08;25.08;;;;;;;19.68;100.00;101862.75;5050118;28;20040;-53
2022/09/11 09:16:18;;;;;;;29.58;25.92;;;;;;;19.93;100.00;101864.97;5050014;28;20507;-53
2022/09/11 09:18:50;;;;;;;31.92;26.13;;;;;;;20.19;100.00;101864.47;5050443;28;20047;-53
2022/09/11 09:21:23;;;;;;;;;;;;;;;20.50;100.00;101858.16;5049436;28;20586;-53
2022/09/11 09:23:55;;;;;;;28.25;24.60;;;;;;;20.69;100.00;101858.16;5050589;28;19921;-52
2022/09/11 09:26:31;;;;;;;28.17;23.60;;;;;;;20.65;100.00;101867.41;5049893;28;20079;-53
2022/09/11 09:29:10;;;;;;;29.20;25.05;;;;;;;20.90;100.00;101868.72;5050219;28;20137;-53
2022/09/11 09:31:40;;;;;;;24.55;21.85;;;;;;;21.02;100.00;101874.72;5049718;28;20057;-55
2022/09/11 09:34:14;;;;;;;24.52;21.92;;;;;;;21.21;100.00;101875.66;5049804;28;20045;-53
2022/09/11 09:36:52;;;;;;;26.58;23.67;;;;;;;21.36;100.00;101882.22;5049380;28;20343;-55
2022/09/11 09:39:21;;;;;;;26.05;23.25;;;;;;;21.57;100.00;101879.38;5049845;28;20048;-54
2022/09/11 09:42:14;;;;;;;25.08;22.30;;;;;;;21.72;95.89;101874.38;5049259;28;20051;-55
2022/09/11 09:44:52;;;;;;;25.17;20.57;;;;;;;21.61;96.09;101880.78;5047503;28;20451;-55
2022/09/11 09:47:20;;;;;;;24.80;22.10;;;;;;;21.54;95.52;101878.81;5049660;28;20110;-56
2022/09/11 09:49:51;;;;;;;23.15;20.08;;;;;;;21.71;99.34;101886.06;5048836;28;20037;-56
2022/09/11 09:52:23;;;;;;;22.58;20.17;;;;;;;21.83;98.05;101889.41;5049719;28;20049;-54
2022/09/11 09:54:56;;;;;;;23.48;20.60;;;;;;;22.24;96.12;101886.34;5052882;28;20532;-54
2022/09/11 09:57:33;;;;;;;24.50;21.85;;;;;;;22.64;94.50;101893.09;5053836;28;20073;-55
2022/09/11 10:00:05;;;;;;;23.52;20.88;;;;;;;22.78;93.24;101879.16;5053803;28;20048;-55
2022/09/11 10:02:38;;;;;;;24.45;21.85;;;;;;;22.48;91.61;101885.75;5053819;28;20107;-55
2022/09/11 10:05:16;;;;;;;23.02;20.52;;;;;;;22.52;90.73;101886.28;5053120;28;20037;-54
2022/09/11 10:07:50;;;;;;;23.48;21.15;;;;;;;22.76;92.75;101877.63;5054068;28;20083;-56
2022/09/11 10:10:24;;;;;;;26.48;23.27;;;;;;;22.78;90.02;101873.81;5052606;28;20510;-56
2022/09/11 10:12:55;;;;;;;22.63;20.17;;;;;;;22.84;89.50;101882.19;5053970;28;20076;-56
2022/09/11 10:15:43;;;;;;;23.35;20.75;;;;;;;23.06;88.52;101884.38;5052024;28;20041;-56
2022/09/11 10:18:38;;;;;;;22.95;20.25;;;;;;;23.06;85.94;101875.50;5053300;28;20510;-56
2022/09/11 10:21:28;;;;;;;21.40;18.85;;;;;;;22.86;85.90;101885.56;5052619;28;20470;-56
2022/09/11 10:23:58;;;;;;;22.83;20.38;;;;;;;22.55;89.29;101884.16;5053567;28;20127;-54
2022/09/11 10:26:31;;;;;;;22.10;19.52;;;;;;;22.79;87.66;101880.00;5053510;28;20128;-56
2022/09/11 10:29:07;;;;;;;21.58;19.27;;;;;;;22.92;88.67;101875.06;5053876;28;20534;-54
2022/09/11 10:31:38;;;;;;;23.65;19.50;;;;;;;23.26;85.45;101878.81;5051435;28;20361;-57
2022/09/11 10:34:14;;;;;;;24.43;19.37;;;;;;;23.56;85.53;101876.63;5053712;28;20045;-55
2022/09/11 10:36:52;;;;;;;23.25;18.30;;;;;;;23.67;85.05;101884.41;5052245;28;20104;-56
2022/09/11 10:39:23;;;;;;;21.55;18.42;;;;;;;23.92;81.28;101882.69;5052203;28;20062;-56
2022/09/11 10:41:55;;;;;;;22.63;19.90;;;;;;;24.06;82.13;101881.19;5053393;28;20056;-56
2022/09/11 10:44:26;;;;;;;20.80;16.85;;;;;;;24.19;77.67;101882.59;5053362;28;20049;-56
2022/09/11 10:47:05;;;;;;;20.27;17.52;;;;;;;24.21;82.16;101880.56;5053034;28;20424;-57
2022/09/11 10:49:33;;;;;;;25.77;19.90;;;;;;;23.70;78.98;101873.34;5053561;28;20073;-55
2022/09/11 10:52:16;;;;;;;22.27;17.92;;;;;;;23.86;81.67;101871.72;5051123;28;20590;-56
2022/09/11 10:54:54;;;;;;;21.35;17.55;;;;;;;23.97;76.80;101876.84;5052872;28;20144;-55
2022/09/11 10:57:29;;;;;;;20.40;17.98;;;;;;;23.59;76.99;101881.69;5052659;28;20107;-56
2022/09/11 11:00:05;;;;;;;21.48;17.02;;;;;;;23.98;77.46;101873.13;5052443;28;20467;-55
2022/09/11 11:02:35;;;;;;;19.10;15.90;;;;;;;24.63;76.02;101877.78;5052789;28;20127;-56
2022/09/11 11:05:08;;;;;;;18.47;14.23;;;;;;;24.81;77.93;101874.06;5050976;28;20080;-56
2022/09/11 11:07:52;;;;;;;17.48;14.60;;;;;;;24.55;73.30;101874.22;5053286;28;20493;-56
2022/09/11 11:10:35;;;;;;;17.67;15.15;;;;;;;24.72;72.14;101865.19;5052938;28;20114;-57
2022/09/11 11:13:12;;;;;;;;;;;;;;;25.08;71.57;101867.47;5053514;28;20115;-57
2022/09/11 11:15:53;;;;;;;19.88;15.15;;;;;;;24.95;71.42;101872.53;5052712;28;19924;-57
2022/09/11 11:18:56;;;;;;;21.45;18.48;;;;;;;25.20;73.27;101873.34;5052792;28;20450;-57
2022/09/11 11:21:40;;;;;;;18.58;15.10;;;;;;;25.44;72.12;101872.47;5044486;28;20057;-56
2022/09/11 11:24:26;;;;;;;16.70;14.70;;;;;;;25.48;72.88;101872.94;5052515;28;20495;-58
2022/09/11 11:27:08;;;;;;;17.80;15.35;;;;;;;25.23;70.95;101874.84;5053072;28;20106;-56